This is the latest recevied weather packets stored in our database for station/object N1UNH. If no packets are shown the sender has not sent any weather packets the latest 10 day(s).
| Time | Temp. | Humidity | Pressure | Rain* | Wind** | Luminosity | Snow |
|---|---|---|---|---|---|---|---|
| 1777405734 | 20° C | 29% | 1026.1 hPa | 0 mm | - | 631 W/m² | - |
| 1777405430 | 20° C | 30% | 1026.1 hPa | 0 mm | - | 651 W/m² | - |
| 1777405128 | 20.56° C | 30% | 1026.1 hPa | 0 mm | - | 487 W/m² | - |
| 1777404826 | 20.56° C | 30% | 1026 hPa | 0 mm | - | 677 W/m² | - |
| 1777404523 | 20° C | 31% | 1026 hPa | 0 mm | - | 700 W/m² | - |
| 1777404219 | 20.56° C | 30% | 1026 hPa | 0 mm | - | 716 W/m² | - |
| 1777403915 | 20.56° C | 31% | 1025.9 hPa | 0 mm | - | 735 W/m² | - |
| 1777403614 | 21.11° C | 30% | 1026 hPa | 0 mm | - | 690 W/m² | - |
| 1777403309 | 20.56° C | 30% | 1025.9 hPa | 0 mm | - | 758 W/m² | - |
| 1777403004 | 20.56° C | 30% | 1026 hPa | 0 mm | - | 776 W/m² | - |
| 1777402700 | 21.11° C | 31% | 1026.4 hPa | 0 mm | - | 787 W/m² | - |
| 1777402400 | 21.11° C | 31% | 1026.5 hPa | 0 mm | - | 803 W/m² | - |
| 1777402098 | 21.11° C | 32% | 1026.2 hPa | 0 mm | - | 814 W/m² | - |
| 1777401794 | 20.56° C | 33% | 1026.3 hPa | 0 mm | - | 826 W/m² | - |
| 1777401488 | 20° C | 32% | 1026.5 hPa | 0 mm | - | 842 W/m² | - |
| 1777401184 | 20° C | 32% | 1026.3 hPa | 0 mm | - | 868 W/m² | - |
| 1777400880 | 20° C | 33% | 1026.4 hPa | 0 mm | - | 827 W/m² | - |
| 1777400576 | 20° C | 33% | 1026.6 hPa | 0 mm | - | 763 W/m² | - |
| 1777400274 | 20° C | 33% | 1026.3 hPa | 0 mm | - | 859 W/m² | - |
| 1777399969 | 20° C | 34% | 1026.6 hPa | 0 mm | - | 802 W/m² | - |
| 1777399666 | 21.67° C | 30% | 1026.8 hPa | 0 mm | - | 915 W/m² | - |
| 1777399363 | 20.56° C | 32% | 1026.7 hPa | 0 mm | - | 900 W/m² | - |
| 1777399061 | 20° C | 34% | 1026.8 hPa | 0 mm | - | 920 W/m² | - |
| 1777398758 | 20.56° C | 32% | 1026.7 hPa | 0 mm | - | 926 W/m² | - |
| 1777398455 | 20° C | 34% | 1026.7 hPa | 0 mm | - | 930 W/m² | - |
* Rain latest hour (hover to see other rain measurements)
** Current wind speed in m/s (hover to see current wind gust speed)